sensor_id;sensor_type;location;lat;lon;timestamp;temperature;humidity
5899;DHT22;2975;50.956;6.962;2022-12-16T00:00:08;-5.40;99.90
5899;DHT22;2975;50.956;6.962;2022-12-16T00:02:34;-5.50;99.90
5899;DHT22;2975;50.956;6.962;2022-12-16T00:05:00;-5.50;99.90
5899;DHT22;2975;50.956;6.962;2022-12-16T00:07:25;-5.50;99.90
5899;DHT22;2975;50.956;6.962;2022-12-16T00:09:51;-5.40;99.90
5899;DHT22;2975;50.956;6.962;2022-12-16T00:12:17;-5.40;99.90
5899;DHT22;2975;50.956;6.962;2022-12-16T00:14:42;-5.40;99.90
5899;DHT22;2975;50.956;6.962;2022-12-16T00:17:08;-5.30;99.90
5899;DHT22;2975;50.956;6.962;2022-12-16T00:19:34;-5.10;99.90
5899;DHT22;2975;50.956;6.962;2022-12-16T00:21:59;-5.40;99.90
5899;DHT22;2975;50.956;6.962;2022-12-16T00:24:25;-5.50;99.90
5899;DHT22;2975;50.956;6.962;2022-12-16T00:26:50;-5.60;99.90
5899;DHT22;2975;50.956;6.962;2022-12-16T00:29:16;-5.70;99.90
5899;DHT22;2975;50.956;6.962;2022-12-16T00:31:42;-5.60;99.90
5899;DHT22;2975;50.956;6.962;2022-12-16T00:34:15;-5.60;99.90
5899;DHT22;2975;50.956;6.962;2022-12-16T00:36:41;-5.50;99.90
5899;DHT22;2975;50.956;6.962;2022-12-16T00:39:08;-5.40;99.90
5899;DHT22;2975;50.956;6.962;2022-12-16T00:41:34;-5.40;99.90
5899;DHT22;2975;50.956;6.962;2022-12-16T00:44:00;-5.50;99.90
5899;DHT22;2975;50.956;6.962;2022-12-16T00:46:26;-5.50;99.90
5899;DHT22;2975;50.956;6.962;2022-12-16T00:48:51;-5.40;99.90
5899;DHT22;2975;50.956;6.962;2022-12-16T00:51:17;-5.50;99.90
5899;DHT22;2975;50.956;6.962;2022-12-16T00:53:42;-5.50;99.90
5899;DHT22;2975;50.956;6.962;2022-12-16T00:56:10;-5.60;99.90
5899;DHT22;2975;50.956;6.962;2022-12-16T00:58:36;-5.60;99.90
5899;DHT22;2975;50.956;6.962;2022-12-16T01:01:02;-5.40;99.90
5899;DHT22;2975;50.956;6.962;2022-12-16T01:03:28;-5.40;99.90
5899;DHT22;2975;50.956;6.962;2022-12-16T01:05:54;-5.40;99.90
5899;DHT22;2975;50.956;6.962;2022-12-16T01:08:19;-5.50;99.90
5899;DHT22;2975;50.956;6.962;2022-12-16T01:10:52;-5.50;99.90
5899;DHT22;2975;50.956;6.962;2022-12-16T01:13:19;-5.50;99.90
5899;DHT22;2975;50.956;6.962;2022-12-16T01:15:45;-5.60;99.90
5899;DHT22;2975;50.956;6.962;2022-12-16T01:18:11;-5.70;99.90
5899;DHT22;2975;50.956;6.962;2022-12-16T01:20:36;-5.80;99.90
5899;DHT22;2975;50.956;6.962;2022-12-16T01:23:03;-5.90;99.90
5899;DHT22;2975;50.956;6.962;2022-12-16T01:25:29;-5.80;99.90
5899;DHT22;2975;50.956;6.962;2022-12-16T01:27:55;-5.70;99.90
5899;DHT22;2975;50.956;6.962;2022-12-16T01:30:21;-5.40;99.90
5899;DHT22;2975;50.956;6.962;2022-12-16T01:32:47;-5.30;99.90
5899;DHT22;2975;50.956;6.962;2022-12-16T01:35:13;-5.20;99.90
5899;DHT22;2975;50.956;6.962;2022-12-16T01:37:38;-5.20;99.90
5899;DHT22;2975;50.956;6.962;2022-12-16T01:40:05;-5.10;99.90
5899;DHT22;2975;50.956;6.962;2022-12-16T01:42:31;-5.10;99.90
5899;DHT22;2975;50.956;6.962;2022-12-16T01:47:53;-5.10;99.90
5899;DHT22;2975;50.956;6.962;2022-12-16T01:50:21;-5.00;99.90
5899;DHT22;2975;50.956;6.962;2022-12-16T01:52:52;-4.90;99.90
5899;DHT22;2975;50.956;6.962;2022-12-16T01:55:29;-4.90;99.90
5899;DHT22;2975;50.956;6.962;2022-12-16T01:58:17;-4.90;99.90
5899;DHT22;2975;50.956;6.962;2022-12-16T02:00:45;-4.90;99.90
5899;DHT22;2975;50.956;6.962;2022-12-16T02:03:10;-4.80;99.90
5899;DHT22;2975;50.956;6.962;2022-12-16T02:05:39;-4.80;99.90
5899;DHT22;2975;50.956;6.962;2022-12-16T02:40:24;-4.60;99.90
5899;DHT22;2975;50.956;6.962;2022-12-16T02:43:03;-4.60;99.90
5899;DHT22;2975;50.956;6.962;2022-12-16T02:45:31;-4.60;99.90
5899;DHT22;2975;50.956;6.962;2022-12-16T02:47:56;-4.70;99.90
5899;DHT22;2975;50.956;6.962;2022-12-16T02:52:52;-4.70;99.90
5899;DHT22;2975;50.956;6.962;2022-12-16T02:55:19;-4.70;99.90
5899;DHT22;2975;50.956;6.962;2022-12-16T03:00:32;-4.80;99.90
5899;DHT22;2975;50.956;6.962;2022-12-16T03:03:15;-4.90;99.90
5899;DHT22;2975;50.956;6.962;2022-12-16T03:05:47;-5.00;99.90
5899;DHT22;2975;50.956;6.962;2022-12-16T03:08:21;-5.10;99.90
5899;DHT22;2975;50.956;6.962;2022-12-16T03:10:53;-5.00;99.90
5899;DHT22;2975;50.956;6.962;2022-12-16T03:13:20;-4.90;99.90
5899;DHT22;2975;50.956;6.962;2022-12-16T03:15:49;-4.70;99.90
5899;DHT22;2975;50.956;6.962;2022-12-16T03:18:18;-4.60;99.90
5899;DHT22;2975;50.956;6.962;2022-12-16T03:20:58;-4.60;99.90
5899;DHT22;2975;50.956;6.962;2022-12-16T03:23:32;-4.60;99.90
5899;DHT22;2975;50.956;6.962;2022-12-16T03:26:07;-4.60;99.90
5899;DHT22;2975;50.956;6.962;2022-12-16T03:34:12;-4.40;99.90
5899;DHT22;2975;50.956;6.962;2022-12-16T03:36:38;-4.40;99.90
5899;DHT22;2975;50.956;6.962;2022-12-16T03:39:06;-4.50;99.90
5899;DHT22;2975;50.956;6.962;2022-12-16T03:41:33;-4.40;99.90
5899;DHT22;2975;50.956;6.962;2022-12-16T03:43:59;-4.40;99.90
5899;DHT22;2975;50.956;6.962;2022-12-16T03:46:25;-4.40;99.90
5899;DHT22;2975;50.956;6.962;2022-12-16T03:48:51;-4.50;99.90
5899;DHT22;2975;50.956;6.962;2022-12-16T03:51:18;-4.50;99.90
5899;DHT22;2975;50.956;6.962;2022-12-16T03:53:44;-4.60;99.90
5899;DHT22;2975;50.956;6.962;2022-12-16T03:56:10;-4.70;99.90
5899;DHT22;2975;50.956;6.962;2022-12-16T03:58:37;-4.60;99.90
5899;DHT22;2975;50.956;6.962;2022-12-16T04:01:06;-4.60;99.90
5899;DHT22;2975;50.956;6.962;2022-12-16T04:03:34;-4.60;99.90
5899;DHT22;2975;50.956;6.962;2022-12-16T04:06:00;-4.60;99.90
5899;DHT22;2975;50.956;6.962;2022-12-16T04:08:26;-4.60;99.90
5899;DHT22;2975;50.956;6.962;2022-12-16T04:10:52;-4.60;99.90
5899;DHT22;2975;50.956;6.962;2022-12-16T04:13:36;-4.60;99.90
5899;DHT22;2975;50.956;6.962;2022-12-16T04:16:20;-4.60;99.90
5899;DHT22;2975;50.956;6.962;2022-12-16T04:19:05;-4.60;99.90
5899;DHT22;2975;50.956;6.962;2022-12-16T04:21:49;-4.60;99.90
5899;DHT22;2975;50.956;6.962;2022-12-16T04:24:33;-4.60;99.90
5899;DHT22;2975;50.956;6.962;2022-12-16T04:26:59;-4.70;99.90
5899;DHT22;2975;50.956;6.962;2022-12-16T04:29:43;-4.70;99.90
5899;DHT22;2975;50.956;6.962;2022-12-16T04:32:28;-4.60;99.90
5899;DHT22;2975;50.956;6.962;2022-12-16T04:35:14;-4.60;99.90
5899;DHT22;2975;50.956;6.962;2022-12-16T04:37:58;-4.60;99.90
5899;DHT22;2975;50.956;6.962;2022-12-16T04:40:42;-4.70;99.90
5899;DHT22;2975;50.956;6.962;2022-12-16T04:43:26;-4.70;99.90
5899;DHT22;2975;50.956;6.962;2022-12-16T04:46:11;-4.70;99.90
5899;DHT22;2975;50.956;6.962;2022-12-16T04:48:55;-4.90;99.90
5899;DHT22;2975;50.956;6.962;2022-12-16T04:51:39;-4.90;99.90
5899;DHT22;2975;50.956;6.962;2022-12-16T04:54:27;-4.90;99.90
5899;DHT22;2975;50.956;6.962;2022-12-16T04:57:11;-4.80;99.90
5899;DHT22;2975;50.956;6.962;2022-12-16T04:59:56;-4.90;99.90
5899;DHT22;2975;50.956;6.962;2022-12-16T05:02:40;-4.80;99.90
5899;DHT22;2975;50.956;6.962;2022-12-16T05:05:23;-4.80;99.90
5899;DHT22;2975;50.956;6.962;2022-12-16T05:08:07;-4.80;99.90
5899;DHT22;2975;50.956;6.962;2022-12-16T05:10:51;-4.90;99.90
5899;DHT22;2975;50.956;6.962;2022-12-16T05:13:36;-5.00;99.90
5899;DHT22;2975;50.956;6.962;2022-12-16T05:16:20;-4.90;99.90
5899;DHT22;2975;50.956;6.962;2022-12-16T05:19:04;-4.90;99.90
5899;DHT22;2975;50.956;6.962;2022-12-16T05:21:48;-4.80;99.90
5899;DHT22;2975;50.956;6.962;2022-12-16T05:24:32;-4.70;99.90
5899;DHT22;2975;50.956;6.962;2022-12-16T05:27:16;-4.80;99.90
5899;DHT22;2975;50.956;6.962;2022-12-16T05:30:00;-4.80;99.90
5899;DHT22;2975;50.956;6.962;2022-12-16T05:32:48;-4.80;99.90
5899;DHT22;2975;50.956;6.962;2022-12-16T05:35:32;-4.90;99.90
5899;DHT22;2975;50.956;6.962;2022-12-16T05:38:16;-5.10;99.90
5899;DHT22;2975;50.956;6.962;2022-12-16T05:41:00;-5.10;99.90
5899;DHT22;2975;50.956;6.962;2022-12-16T05:43:44;-5.00;99.90
5899;DHT22;2975;50.956;6.962;2022-12-16T05:46:28;-5.00;99.90
5899;DHT22;2975;50.956;6.962;2022-12-16T05:49:12;-5.10;99.90
5899;DHT22;2975;50.956;6.962;2022-12-16T05:51:56;-5.10;99.90
5899;DHT22;2975;50.956;6.962;2022-12-16T05:54:40;-5.20;99.90
5899;DHT22;2975;50.956;6.962;2022-12-16T05:57:24;-5.20;99.90
5899;DHT22;2975;50.956;6.962;2022-12-16T06:00:09;-5.40;99.90
5899;DHT22;2975;50.956;6.962;2022-12-16T06:02:53;-5.50;99.90
5899;DHT22;2975;50.956;6.962;2022-12-16T06:05:37;-5.40;99.90
5899;DHT22;2975;50.956;6.962;2022-12-16T06:08:21;-5.40;99.90
5899;DHT22;2975;50.956;6.962;2022-12-16T06:11:05;-5.50;99.90
5899;DHT22;2975;50.956;6.962;2022-12-16T06:13:49;-5.50;99.90
5899;DHT22;2975;50.956;6.962;2022-12-16T06:16:34;-5.50;99.90
5899;DHT22;2975;50.956;6.962;2022-12-16T06:19:22;-5.50;99.90
5899;DHT22;2975;50.956;6.962;2022-12-16T06:22:07;-5.50;99.90
5899;DHT22;2975;50.956;6.962;2022-12-16T06:24:51;-5.60;99.90
5899;DHT22;2975;50.956;6.962;2022-12-16T06:27:35;-5.50;99.90
5899;DHT22;2975;50.956;6.962;2022-12-16T06:30:19;-5.40;99.90
5899;DHT22;2975;50.956;6.962;2022-12-16T06:33:03;-5.20;99.90
5899;DHT22;2975;50.956;6.962;2022-12-16T06:35:47;-5.10;99.90
5899;DHT22;2975;50.956;6.962;2022-12-16T06:38:31;-5.10;99.90
5899;DHT22;2975;50.956;6.962;2022-12-16T06:41:15;-5.10;99.90
5899;DHT22;2975;50.956;6.962;2022-12-16T06:43:59;-5.00;99.90
5899;DHT22;2975;50.956;6.962;2022-12-16T06:46:43;-4.90;99.90
5899;DHT22;2975;50.956;6.962;2022-12-16T06:49:27;-4.90;99.90
5899;DHT22;2975;50.956;6.962;2022-12-16T06:52:11;-4.90;99.90
5899;DHT22;2975;50.956;6.962;2022-12-16T06:54:55;-4.80;99.90
5899;DHT22;2975;50.956;6.962;2022-12-16T06:57:39;-4.80;99.90
5899;DHT22;2975;50.956;6.962;2022-12-16T07:00:23;-4.90;99.90
5899;DHT22;2975;50.956;6.962;2022-12-16T07:03:07;-4.80;99.90
5899;DHT22;2975;50.956;6.962;2022-12-16T07:05:52;-4.90;99.90
5899;DHT22;2975;50.956;6.962;2022-12-16T07:08:36;-4.90;99.90
5899;DHT22;2975;50.956;6.962;2022-12-16T07:11:20;-4.90;99.90
5899;DHT22;2975;50.956;6.962;2022-12-16T07:14:06;-4.90;99.90
5899;DHT22;2975;50.956;6.962;2022-12-16T07:16:50;-4.80;99.90
5899;DHT22;2975;50.956;6.962;2022-12-16T07:19:34;-4.80;99.90
5899;DHT22;2975;50.956;6.962;2022-12-16T07:22:18;-4.80;99.90
5899;DHT22;2975;50.956;6.962;2022-12-16T07:25:02;-5.00;99.90
5899;DHT22;2975;50.956;6.962;2022-12-16T07:27:47;-5.10;99.90
5899;DHT22;2975;50.956;6.962;2022-12-16T07:30:31;-5.20;99.90
5899;DHT22;2975;50.956;6.962;2022-12-16T07:33:15;-5.10;99.90
5899;DHT22;2975;50.956;6.962;2022-12-16T07:35:59;-5.00;99.90
5899;DHT22;2975;50.956;6.962;2022-12-16T07:38:43;-4.90;99.90
5899;DHT22;2975;50.956;6.962;2022-12-16T07:41:35;-4.90;99.90
5899;DHT22;2975;50.956;6.962;2022-12-16T07:44:19;-5.00;99.90
5899;DHT22;2975;50.956;6.962;2022-12-16T07:47:03;-5.10;99.90
5899;DHT22;2975;50.956;6.962;2022-12-16T07:49:47;-5.10;99.90
5899;DHT22;2975;50.956;6.962;2022-12-16T07:52:31;-5.00;99.90
5899;DHT22;2975;50.956;6.962;2022-12-16T07:55:15;-4.90;99.90
5899;DHT22;2975;50.956;6.962;2022-12-16T07:58:00;-4.90;99.90
5899;DHT22;2975;50.956;6.962;2022-12-16T08:00:43;-4.90;99.90
5899;DHT22;2975;50.956;6.962;2022-12-16T08:03:27;-4.90;99.90
5899;DHT22;2975;50.956;6.962;2022-12-16T08:06:12;-5.00;99.90
5899;DHT22;2975;50.956;6.962;2022-12-16T08:08:56;-5.00;99.90
5899;DHT22;2975;50.956;6.962;2022-12-16T08:11:40;-5.10;99.90
5899;DHT22;2975;50.956;6.962;2022-12-16T08:14:24;-5.00;99.90
5899;DHT22;2975;50.956;6.962;2022-12-16T08:17:08;-5.00;99.90
5899;DHT22;2975;50.956;6.962;2022-12-16T08:19:52;-4.90;99.90
5899;DHT22;2975;50.956;6.962;2022-12-16T08:22:36;-5.00;99.90
5899;DHT22;2975;50.956;6.962;2022-12-16T08:25:20;-5.10;99.90
5899;DHT22;2975;50.956;6.962;2022-12-16T08:28:04;-5.10;99.90
5899;DHT22;2975;50.956;6.962;2022-12-16T08:30:49;-5.20;99.90
5899;DHT22;2975;50.956;6.962;2022-12-16T08:33:33;-5.20;99.90
5899;DHT22;2975;50.956;6.962;2022-12-16T08:36:18;-5.30;99.90
5899;DHT22;2975;50.956;6.962;2022-12-16T08:39:02;-5.30;99.90
5899;DHT22;2975;50.956;6.962;2022-12-16T08:41:47;-5.30;99.90
5899;DHT22;2975;50.956;6.962;2022-12-16T08:44:31;-5.10;99.90
5899;DHT22;2975;50.956;6.962;2022-12-16T08:47:15;-5.10;99.90
5899;DHT22;2975;50.956;6.962;2022-12-16T08:49:59;-5.00;99.90
5899;DHT22;2975;50.956;6.962;2022-12-16T08:52:43;-4.90;99.90
5899;DHT22;2975;50.956;6.962;2022-12-16T08:55:27;-5.00;99.90
5899;DHT22;2975;50.956;6.962;2022-12-16T08:58:11;-5.00;99.90
5899;DHT22;2975;50.956;6.962;2022-12-16T09:00:55;-5.10;99.90
5899;DHT22;2975;50.956;6.962;2022-12-16T09:03:39;-5.10;99.90
5899;DHT22;2975;50.956;6.962;2022-12-16T09:06:23;-5.00;99.90
5899;DHT22;2975;50.956;6.962;2022-12-16T09:09:08;-5.00;99.90
5899;DHT22;2975;50.956;6.962;2022-12-16T09:11:52;-5.00;99.90
5899;DHT22;2975;50.956;6.962;2022-12-16T09:14:36;-5.00;99.90
5899;DHT22;2975;50.956;6.962;2022-12-16T09:17:20;-5.00;99.90
5899;DHT22;2975;50.956;6.962;2022-12-16T09:20:05;-4.80;99.90
5899;DHT22;2975;50.956;6.962;2022-12-16T09:23:03;-4.80;99.90
5899;DHT22;2975;50.956;6.962;2022-12-16T09:25:47;-4.70;99.90
5899;DHT22;2975;50.956;6.962;2022-12-16T09:28:31;-4.70;99.90
5899;DHT22;2975;50.956;6.962;2022-12-16T09:31:15;-4.60;99.90
5899;DHT22;2975;50.956;6.962;2022-12-16T09:33:59;-4.60;99.90
5899;DHT22;2975;50.956;6.962;2022-12-16T09:36:43;-4.60;99.90
5899;DHT22;2975;50.956;6.962;2022-12-16T09:39:27;-4.40;99.90
5899;DHT22;2975;50.956;6.962;2022-12-16T09:42:45;-4.40;99.90
5899;DHT22;2975;50.956;6.962;2022-12-16T09:51:07;-4.60;99.90
5899;DHT22;2975;50.956;6.962;2022-12-16T09:53:53;-4.60;99.90
5899;DHT22;2975;50.956;6.962;2022-12-16T09:56:38;-4.60;99.90
5899;DHT22;2975;50.956;6.962;2022-12-16T09:59:43;-4.60;99.90
5899;DHT22;2975;50.956;6.962;2022-12-16T10:02:28;-4.60;99.90
5899;DHT22;2975;50.956;6.962;2022-12-16T10:05:14;-4.30;99.90
5899;DHT22;2975;50.956;6.962;2022-12-16T10:08:09;-4.20;99.90
5899;DHT22;2975;50.956;6.962;2022-12-16T10:11:05;-4.10;99.90
5899;DHT22;2975;50.956;6.962;2022-12-16T10:14:03;-4.00;99.90
5899;DHT22;2975;50.956;6.962;2022-12-16T10:17:28;-4.00;99.90
5899;DHT22;2975;50.956;6.962;2022-12-16T10:23:07;-4.20;99.90
5899;DHT22;2975;50.956;6.962;2022-12-16T10:26:19;-4.20;99.90
5899;DHT22;2975;50.956;6.962;2022-12-16T10:29:19;-4.20;99.90
5899;DHT22;2975;50.956;6.962;2022-12-16T10:35:22;-3.90;99.90
5899;DHT22;2975;50.956;6.962;2022-12-16T10:38:34;-3.90;99.90
5899;DHT22;2975;50.956;6.962;2022-12-16T10:41:24;-3.80;99.90
5899;DHT22;2975;50.956;6.962;2022-12-16T10:47:03;-3.70;99.90
5899;DHT22;2975;50.956;6.962;2022-12-16T10:49:48;-3.70;99.90
5899;DHT22;2975;50.956;6.962;2022-12-16T10:52:34;-3.50;99.90
5899;DHT22;2975;50.956;6.962;2022-12-16T10:58:32;-3.50;99.90
5899;DHT22;2975;50.956;6.962;2022-12-16T11:01:21;-3.40;99.90
5899;DHT22;2975;50.956;6.962;2022-12-16T11:04:41;-3.30;99.90
5899;DHT22;2975;50.956;6.962;2022-12-16T11:07:32;-3.30;99.90
5899;DHT22;2975;50.956;6.962;2022-12-16T11:10:39;-3.20;99.90
5899;DHT22;2975;50.956;6.962;2022-12-16T11:13:30;-3.30;99.90
5899;DHT22;2975;50.956;6.962;2022-12-16T11:16:25;-3.20;99.90
5899;DHT22;2975;50.956;6.962;2022-12-16T11:19:20;-3.20;99.90
5899;DHT22;2975;50.956;6.962;2022-12-16T11:28:13;-3.20;99.90
5899;DHT22;2975;50.956;6.962;2022-12-16T11:31:05;-3.10;99.90
5899;DHT22;2975;50.956;6.962;2022-12-16T11:33:51;-3.10;99.90
5899;DHT22;2975;50.956;6.962;2022-12-16T11:36:38;-3.00;99.90
5899;DHT22;2975;50.956;6.962;2022-12-16T11:39:26;-2.90;99.90
5899;DHT22;2975;50.956;6.962;2022-12-16T11:42:19;-2.90;99.90
5899;DHT22;2975;50.956;6.962;2022-12-16T11:45:05;-2.90;99.90
5899;DHT22;2975;50.956;6.962;2022-12-16T11:47:57;-2.80;99.90
5899;DHT22;2975;50.956;6.962;2022-12-16T11:50:54;-2.80;99.90
5899;DHT22;2975;50.956;6.962;2022-12-16T11:53:49;-2.70;99.90
5899;DHT22;2975;50.956;6.962;2022-12-16T11:56:45;-2.60;99.90
5899;DHT22;2975;50.956;6.962;2022-12-16T11:59:48;-2.50;99.90
5899;DHT22;2975;50.956;6.962;2022-12-16T12:06:04;-2.40;99.90
5899;DHT22;2975;50.956;6.962;2022-12-16T12:09:04;-2.40;99.90
5899;DHT22;2975;50.956;6.962;2022-12-16T12:15:32;-2.30;99.90
5899;DHT22;2975;50.956;6.962;2022-12-16T12:21:33;-2.30;99.90
5899;DHT22;2975;50.956;6.962;2022-12-16T12:24:41;-2.30;99.90
5899;DHT22;2975;50.956;6.962;2022-12-16T12:27:34;-2.30;99.90
5899;DHT22;2975;50.956;6.962;2022-12-16T12:30:21;-2.20;99.90
5899;DHT22;2975;50.956;6.962;2022-12-16T12:33:50;-2.20;99.90
5899;DHT22;2975;50.956;6.962;2022-12-16T12:36:43;-2.10;99.90
5899;DHT22;2975;50.956;6.962;2022-12-16T12:39:46;-2.10;99.90
5899;DHT22;2975;50.956;6.962;2022-12-16T12:42:35;-2.10;99.90
5899;DHT22;2975;50.956;6.962;2022-12-16T12:49:10;-2.00;99.90
5899;DHT22;2975;50.956;6.962;2022-12-16T12:55:24;-2.10;99.90
5899;DHT22;2975;50.956;6.962;2022-12-16T12:58:12;-2.10;99.90
5899;DHT22;2975;50.956;6.962;2022-12-16T13:00:59;-2.00;99.90
5899;DHT22;2975;50.956;6.962;2022-12-16T13:03:49;-2.00;99.90
5899;DHT22;2975;50.956;6.962;2022-12-16T13:06:36;-2.00;99.90
5899;DHT22;2975;50.956;6.962;2022-12-16T13:15:01;-2.10;99.90
5899;DHT22;2975;50.956;6.962;2022-12-16T13:20:46;-1.90;99.90
5899;DHT22;2975;50.956;6.962;2022-12-16T13:23:34;-1.90;99.90
5899;DHT22;2975;50.956;6.962;2022-12-16T13:26:20;-1.80;99.90
5899;DHT22;2975;50.956;6.962;2022-12-16T13:35:15;-1.80;99.90
5899;DHT22;2975;50.956;6.962;2022-12-16T13:38:18;-1.80;99.90
5899;DHT22;2975;50.956;6.962;2022-12-16T13:44:10;-1.80;99.90
5899;DHT22;2975;50.956;6.962;2022-12-16T13:46:55;-1.80;99.90
5899;DHT22;2975;50.956;6.962;2022-12-16T13:49:50;-1.90;99.90
5899;DHT22;2975;50.956;6.962;2022-12-16T13:52:57;-1.90;99.90
5899;DHT22;2975;50.956;6.962;2022-12-16T13:55:56;-1.90;99.90
5899;DHT22;2975;50.956;6.962;2022-12-16T13:58:46;-2.00;99.90
5899;DHT22;2975;50.956;6.962;2022-12-16T14:04:38;-2.20;99.90
5899;DHT22;2975;50.956;6.962;2022-12-16T14:07:24;-2.20;99.90
5899;DHT22;2975;50.956;6.962;2022-12-16T14:10:24;-2.30;99.90
5899;DHT22;2975;50.956;6.962;2022-12-16T14:13:28;-2.30;99.90
5899;DHT22;2975;50.956;6.962;2022-12-16T14:16:21;-2.40;99.90
5899;DHT22;2975;50.956;6.962;2022-12-16T14:19:24;-2.40;99.90
5899;DHT22;2975;50.956;6.962;2022-12-16T14:25:22;-2.50;99.90
5899;DHT22;2975;50.956;6.962;2022-12-16T14:28:35;-2.50;99.90
5899;DHT22;2975;50.956;6.962;2022-12-16T14:31:23;-2.40;99.90
5899;DHT22;2975;50.956;6.962;2022-12-16T14:34:19;-2.30;99.90
5899;DHT22;2975;50.956;6.962;2022-12-16T14:37:17;-2.30;99.90
5899;DHT22;2975;50.956;6.962;2022-12-16T14:40:04;-2.20;99.90
5899;DHT22;2975;50.956;6.962;2022-12-16T14:42:51;-2.20;99.90
5899;DHT22;2975;50.956;6.962;2022-12-16T14:45:37;-2.10;99.90
5899;DHT22;2975;50.956;6.962;2022-12-16T14:48:35;-2.10;99.90
5899;DHT22;2975;50.956;6.962;2022-12-16T14:57:16;-1.90;99.90
5899;DHT22;2975;50.956;6.962;2022-12-16T15:02:54;-1.90;99.90
5899;DHT22;2975;50.956;6.962;2022-12-16T15:05:40;-1.90;99.90
5899;DHT22;2975;50.956;6.962;2022-12-16T15:08:27;-1.90;99.90
5899;DHT22;2975;50.956;6.962;2022-12-16T15:11:15;-1.90;99.90
5899;DHT22;2975;50.956;6.962;2022-12-16T15:14:00;-1.80;99.90
5899;DHT22;2975;50.956;6.962;2022-12-16T15:16:46;-1.80;99.90
5899;DHT22;2975;50.956;6.962;2022-12-16T15:19:38;-1.70;99.90
5899;DHT22;2975;50.956;6.962;2022-12-16T15:22:24;-1.60;99.90
5899;DHT22;2975;50.956;6.962;2022-12-16T15:25:20;-1.60;99.90
5899;DHT22;2975;50.956;6.962;2022-12-16T15:28:21;-1.70;99.90
5899;DHT22;2975;50.956;6.962;2022-12-16T15:31:22;-1.70;99.90
5899;DHT22;2975;50.956;6.962;2022-12-16T15:34:21;-1.70;99.90
5899;DHT22;2975;50.956;6.962;2022-12-16T15:37:15;-1.80;99.90
5899;DHT22;2975;50.956;6.962;2022-12-16T15:39:59;-1.70;99.90
5899;DHT22;2975;50.956;6.962;2022-12-16T15:42:49;-1.80;99.90
5899;DHT22;2975;50.956;6.962;2022-12-16T15:45:34;-1.70;99.90
5899;DHT22;2975;50.956;6.962;2022-12-16T15:48:25;-1.80;99.90
5899;DHT22;2975;50.956;6.962;2022-12-16T15:54:23;-1.80;99.90
5899;DHT22;2975;50.956;6.962;2022-12-16T15:57:33;-1.90;99.90
5899;DHT22;2975;50.956;6.962;2022-12-16T16:03:02;-1.80;99.90
5899;DHT22;2975;50.956;6.962;2022-12-16T16:05:47;-1.80;99.90
5899;DHT22;2975;50.956;6.962;2022-12-16T16:08:31;-1.80;99.90
5899;DHT22;2975;50.956;6.962;2022-12-16T16:11:15;-1.60;99.90
5899;DHT22;2975;50.956;6.962;2022-12-16T16:13:59;-1.60;99.90
5899;DHT22;2975;50.956;6.962;2022-12-16T16:16:43;-1.50;99.90
5899;DHT22;2975;50.956;6.962;2022-12-16T16:19:27;-1.60;99.90
5899;DHT22;2975;50.956;6.962;2022-12-16T16:22:14;-1.70;99.90
5899;DHT22;2975;50.956;6.962;2022-12-16T16:24:58;-1.60;99.90
5899;DHT22;2975;50.956;6.962;2022-12-16T16:27:43;-1.60;99.90
5899;DHT22;2975;50.956;6.962;2022-12-16T16:30:27;-1.60;99.90
5899;DHT22;2975;50.956;6.962;2022-12-16T16:33:11;-1.50;99.90
5899;DHT22;2975;50.956;6.962;2022-12-16T16:35:55;-1.50;99.90
5899;DHT22;2975;50.956;6.962;2022-12-16T16:38:39;-1.40;99.90
5899;DHT22;2975;50.956;6.962;2022-12-16T16:41:23;-1.40;99.90
5899;DHT22;2975;50.956;6.962;2022-12-16T16:44:08;-1.40;99.90
5899;DHT22;2975;50.956;6.962;2022-12-16T16:46:52;-1.40;99.90
5899;DHT22;2975;50.956;6.962;2022-12-16T16:49:42;-1.30;99.90
5899;DHT22;2975;50.956;6.962;2022-12-16T16:52:28;-1.30;99.90
5899;DHT22;2975;50.956;6.962;2022-12-16T16:55:18;-1.30;99.90
5899;DHT22;2975;50.956;6.962;2022-12-16T16:58:14;-1.20;99.90
5899;DHT22;2975;50.956;6.962;2022-12-16T17:00:59;-1.20;99.90
5899;DHT22;2975;50.956;6.962;2022-12-16T17:03:43;-1.20;99.90
5899;DHT22;2975;50.956;6.962;2022-12-16T17:06:27;-1.20;99.90
5899;DHT22;2975;50.956;6.962;2022-12-16T17:09:11;-1.20;99.90
5899;DHT22;2975;50.956;6.962;2022-12-16T17:11:55;-1.10;99.90
5899;DHT22;2975;50.956;6.962;2022-12-16T17:14:39;-1.10;99.90
5899;DHT22;2975;50.956;6.962;2022-12-16T17:17:24;-1.00;99.90
5899;DHT22;2975;50.956;6.962;2022-12-16T17:20:13;-1.00;99.90
5899;DHT22;2975;50.956;6.962;2022-12-16T17:22:57;-1.00;99.90
5899;DHT22;2975;50.956;6.962;2022-12-16T17:25:41;-1.00;99.90
5899;DHT22;2975;50.956;6.962;2022-12-16T17:28:25;-1.00;99.90
5899;DHT22;2975;50.956;6.962;2022-12-16T17:31:10;-0.90;99.90
5899;DHT22;2975;50.956;6.962;2022-12-16T17:33:54;-0.90;99.90
5899;DHT22;2975;50.956;6.962;2022-12-16T17:36:38;-0.80;99.90
5899;DHT22;2975;50.956;6.962;2022-12-16T17:39:22;-0.90;99.90
5899;DHT22;2975;50.956;6.962;2022-12-16T17:42:06;-1.00;99.90
5899;DHT22;2975;50.956;6.962;2022-12-16T17:44:50;-1.00;99.90
5899;DHT22;2975;50.956;6.962;2022-12-16T17:47:34;-1.00;99.90
5899;DHT22;2975;50.956;6.962;2022-12-16T17:50:18;-0.90;99.90
5899;DHT22;2975;50.956;6.962;2022-12-16T17:53:03;-0.90;99.90
5899;DHT22;2975;50.956;6.962;2022-12-16T17:55:47;-1.00;99.90
5899;DHT22;2975;50.956;6.962;2022-12-16T17:58:35;-1.00;99.90
5899;DHT22;2975;50.956;6.962;2022-12-16T18:01:20;-0.80;99.90
5899;DHT22;2975;50.956;6.962;2022-12-16T18:04:04;-0.70;99.90
5899;DHT22;2975;50.956;6.962;2022-12-16T18:06:49;-0.60;99.90
5899;DHT22;2975;50.956;6.962;2022-12-16T18:09:33;-0.60;99.90
5899;DHT22;2975;50.956;6.962;2022-12-16T18:12:17;-0.60;99.90
5899;DHT22;2975;50.956;6.962;2022-12-16T18:15:02;-0.60;99.90
5899;DHT22;2975;50.956;6.962;2022-12-16T18:17:49;-0.60;99.90
5899;DHT22;2975;50.956;6.962;2022-12-16T18:20:33;-0.70;99.90
5899;DHT22;2975;50.956;6.962;2022-12-16T18:23:18;-0.70;99.90
5899;DHT22;2975;50.956;6.962;2022-12-16T18:26:05;-0.70;99.90
5899;DHT22;2975;50.956;6.962;2022-12-16T18:28:49;-0.70;99.90
5899;DHT22;2975;50.956;6.962;2022-12-16T18:31:34;-0.70;99.90
5899;DHT22;2975;50.956;6.962;2022-12-16T18:34:19;-0.70;99.90
5899;DHT22;2975;50.956;6.962;2022-12-16T18:37:04;-0.70;99.90
5899;DHT22;2975;50.956;6.962;2022-12-16T18:39:48;-0.70;99.90
5899;DHT22;2975;50.956;6.962;2022-12-16T18:42:32;-0.70;99.90
5899;DHT22;2975;50.956;6.962;2022-12-16T18:45:16;-0.70;99.90
5899;DHT22;2975;50.956;6.962;2022-12-16T18:48:00;-0.60;99.90
5899;DHT22;2975;50.956;6.962;2022-12-16T18:50:51;-0.70;99.90
5899;DHT22;2975;50.956;6.962;2022-12-16T18:53:36;-0.70;99.90
5899;DHT22;2975;50.956;6.962;2022-12-16T18:56:20;-0.70;99.90
5899;DHT22;2975;50.956;6.962;2022-12-16T18:59:04;-0.70;99.90
5899;DHT22;2975;50.956;6.962;2022-12-16T19:01:48;-0.60;99.90
5899;DHT22;2975;50.956;6.962;2022-12-16T19:04:32;-0.40;99.90
5899;DHT22;2975;50.956;6.962;2022-12-16T19:07:16;-0.40;99.90
5899;DHT22;2975;50.956;6.962;2022-12-16T19:10:00;-0.40;99.90
5899;DHT22;2975;50.956;6.962;2022-12-16T19:12:44;-0.30;99.90
5899;DHT22;2975;50.956;6.962;2022-12-16T19:15:28;-0.40;99.90
5899;DHT22;2975;50.956;6.962;2022-12-16T19:18:13;-0.40;99.90
5899;DHT22;2975;50.956;6.962;2022-12-16T19:20:57;-0.40;99.90
5899;DHT22;2975;50.956;6.962;2022-12-16T19:23:41;-0.40;99.90
5899;DHT22;2975;50.956;6.962;2022-12-16T19:26:26;-0.40;99.90
5899;DHT22;2975;50.956;6.962;2022-12-16T19:29:10;-0.40;99.90
5899;DHT22;2975;50.956;6.962;2022-12-16T19:31:55;-0.40;99.90
5899;DHT22;2975;50.956;6.962;2022-12-16T19:34:39;-0.30;99.90
5899;DHT22;2975;50.956;6.962;2022-12-16T19:37:40;-0.40;99.90
5899;DHT22;2975;50.956;6.962;2022-12-16T19:40:24;-0.30;99.90
5899;DHT22;2975;50.956;6.962;2022-12-16T19:43:08;-0.30;99.90
5899;DHT22;2975;50.956;6.962;2022-12-16T19:45:54;-0.20;99.90
5899;DHT22;2975;50.956;6.962;2022-12-16T19:48:39;-0.20;99.90
5899;DHT22;2975;50.956;6.962;2022-12-16T19:51:30;-0.10;99.90